Time;durP1;ratioP1;P1;durP2;ratioP2;P2;SDS_P1;SDS_P2;PMS_P1;PMS_P2;Temp;Humidity;BMP_temperature;BMP_pressure;BME280_temperature;BME280_humidity;BME280_pressure;Samples;Min_cycle;Max_cycle;Signal;HPM_P1;HPM_P2
2022/05/22 00:00:11;;;;;;;5.85;3.10;;;15.50;74.40;;;;;;5144045;27;20369;-72
2022/05/22 00:02:37;;;;;;;5.53;3.70;;;15.50;74.40;;;;;;5148150;27;20029;-72
2022/05/22 00:05:04;;;;;;;5.90;3.90;;;15.50;74.50;;;;;;5144840;27;20037;-72
2022/05/22 00:07:31;;;;;;;6.25;3.53;;;15.40;74.40;;;;;;5142516;27;20110;-72
2022/05/22 00:09:57;;;;;;;9.02;4.43;;;15.40;74.30;;;;;;5146758;27;20059;-72
2022/05/22 00:12:24;;;;;;;6.55;4.07;;;15.40;74.30;;;;;;5149730;27;20015;-72
2022/05/22 00:14:50;;;;;;;7.15;3.72;;;15.40;74.30;;;;;;5143761;27;20485;-72
2022/05/22 00:17:17;;;;;;;5.90;3.85;;;15.40;74.40;;;;;;5144575;27;20507;-71
2022/05/22 00:19:43;;;;;;;10.75;3.85;;;15.40;74.40;;;;;;5147501;27;20515;-72
2022/05/22 00:22:10;;;;;;;5.90;3.03;;;15.40;74.60;;;;;;5151197;27;20500;-72
2022/05/22 00:24:36;;;;;;;5.78;2.78;;;15.40;74.80;;;;;;5147148;27;20058;-72
2022/05/22 00:27:04;;;;;;;3.42;2.22;;;15.40;74.60;;;;;;5149379;27;20022;-72
2022/05/22 00:29:31;;;;;;;2.55;2.17;;;15.40;74.60;;;;;;5137624;27;20064;-72
2022/05/22 00:31:58;;;;;;;4.38;2.55;;;15.40;74.40;;;;;;5143532;27;20473;-72
2022/05/22 00:34:25;;;;;;;3.92;2.42;;;15.40;74.50;;;;;;5142483;27;20154;-71
2022/05/22 00:36:51;;;;;;;4.30;2.45;;;15.30;74.50;;;;;;5138556;27;20454;-71
2022/05/22 00:39:18;;;;;;;2.53;2.10;;;15.30;74.50;;;;;;5152052;27;20058;-71
2022/05/22 00:41:53;;;;;;;3.33;2.03;;;15.30;74.50;;;;;;5147019;27;20378;-72
2022/05/22 00:44:20;;;;;;;2.20;1.52;;;15.30;74.40;;;;;;5152804;27;20472;-71
2022/05/22 00:46:47;;;;;;;2.78;1.17;;;15.30;74.40;;;;;;5151503;27;20050;-71
2022/05/22 00:49:30;;;;;;;2.80;1.30;;;15.30;74.50;;;;;;5152564;27;20029;-71
2022/05/22 00:52:07;;;;;;;2.15;0.90;;;15.30;74.60;;;;;;5146699;27;20034;-72
2022/05/22 00:55:08;;;;;;;2.72;0.95;;;15.30;74.50;;;;;;5149758;27;20396;-72
2022/05/22 00:57:40;;;;;;;2.58;1.20;;;15.30;74.50;;;;;;5147099;27;20033;-72
2022/05/22 01:00:12;;;;;;;2.42;1.00;;;15.30;74.60;;;;;;5152930;27;20015;-72
2022/05/22 01:05:24;;;;;;;3.53;1.30;;;15.20;74.50;;;;;;5150053;27;20034;-72
2022/05/22 01:07:50;;;;;;;2.20;0.80;;;15.20;74.60;;;;;;5145532;27;20366;-72
2022/05/22 01:10:18;;;;;;;1.58;1.17;;;15.20;74.50;;;;;;5145150;27;20019;-72
2022/05/22 01:12:46;;;;;;;2.22;0.70;;;15.20;74.40;;;;;;5152548;27;20019;-72
2022/05/22 01:15:14;;;;;;;3.15;1.30;;;15.20;74.50;;;;;;5151041;27;20053;-72
2022/05/22 01:17:47;;;;;;;2.08;1.15;;;15.20;74.50;;;;;;5152676;27;20023;-72
2022/05/22 01:20:15;;;;;;;1.65;1.30;;;15.20;74.50;;;;;;5147661;27;20110;-72
2022/05/22 01:22:41;;;;;;;6.75;3.10;;;15.10;74.50;;;;;;5152216;27;20029;-72
2022/05/22 01:25:09;;;;;;;6.30;3.90;;;15.10;74.60;;;;;;5152721;27;20032;-73
2022/05/22 01:27:38;;;;;;;5.95;3.88;;;15.10;74.70;;;;;;5147495;27;20500;-72
2022/05/22 01:30:18;;;;;;;9.45;4.97;;;15.10;74.70;;;;;;5151429;27;20026;-72
2022/05/22 01:32:47;;;;;;;10.00;5.95;;;15.10;74.60;;;;;;5142938;27;20023;-72
2022/05/22 01:35:17;;;;;;;7.95;5.35;;;15.10;74.70;;;;;;5150886;27;20039;-72
2022/05/22 01:37:45;;;;;;;6.38;5.70;;;15.10;74.60;;;;;;5139742;27;20015;-72
2022/05/22 01:40:13;;;;;;;10.63;7.15;;;15.10;74.50;;;;;;5153307;27;20019;-72
2022/05/22 01:42:40;;;;;;;16.13;7.72;;;15.10;74.40;;;;;;5140366;27;20015;-72
2022/05/22 01:45:09;;;;;;;9.43;7.07;;;15.10;74.30;;;;;;5151791;27;20031;-72
2022/05/22 01:47:38;;;;;;;12.35;8.35;;;15.10;74.30;;;;;;5145079;27;20030;-72
2022/05/22 01:50:06;;;;;;;8.07;7.25;;;15.10;74.30;;;;;;5151233;27;20019;-72
2022/05/22 01:52:32;;;;;;;9.13;6.72;;;15.00;74.30;;;;;;5150563;27;20046;-72
2022/05/22 01:54:59;;;;;;;8.02;5.78;;;15.00;74.30;;;;;;5152479;27;20066;-71
2022/05/22 01:57:26;;;;;;;7.13;5.40;;;15.00;74.30;;;;;;5148592;27;20037;-72
2022/05/22 01:59:52;;;;;;;7.65;4.60;;;15.10;74.30;;;;;;5146103;27;20038;-72
2022/05/22 02:02:19;;;;;;;8.75;4.82;;;15.00;74.30;;;;;;5151026;27;20070;-72
2022/05/22 02:04:45;;;;;;;7.43;4.78;;;15.00;74.30;;;;;;5150755;27;20027;-72
2022/05/22 02:09:56;;;;;;;22.10;12.73;;;15.00;74.30;;;;;;5144965;27;20037;-71
2022/05/22 02:12:23;;;;;;;31.63;17.48;;;15.00;74.30;;;;;;5149914;27;20026;-72
2022/05/22 02:14:49;;;;;;;35.95;22.80;;;15.00;74.40;;;;;;5152097;27;20077;-72
2022/05/22 02:17:16;;;;;;;39.70;23.42;;;15.00;74.30;;;;;;5150496;27;20469;-72
2022/05/22 02:19:42;;;;;;;41.35;24.80;;;15.00;75.00;;;;;;5149102;27;20600;-72
2022/05/22 02:22:09;;;;;;;39.53;24.75;;;14.90;74.20;;;;;;5150604;27;20027;-71
2022/05/22 02:24:35;;;;;;;38.10;22.55;;;14.90;74.30;;;;;;5145930;27;20062;-72
2022/05/22 02:27:09;;;;;;;37.22;21.92;;;14.90;74.40;;;;;;5142462;27;20510;-71
2022/05/22 02:29:36;;;;;;;27.52;16.73;;;14.90;74.50;;;;;;5151333;27;20027;-71
2022/05/22 02:32:03;;;;;;;22.50;10.80;;;14.90;74.60;;;;;;5151445;27;20019;-71
2022/05/22 02:34:30;;;;;;;14.05;9.18;;;14.90;74.70;;;;;;5150309;27;20499;-71
2022/05/22 02:36:56;;;;;;;11.02;7.50;;;14.90;74.80;;;;;;5124743;27;20454;-71
2022/05/22 02:39:23;;;;;;;10.02;6.32;;;14.90;74.90;;;;;;5146916;27;20014;-71
2022/05/22 02:41:49;;;;;;;7.85;5.22;;;14.90;75.00;;;;;;5151157;27;20106;-71
2022/05/22 02:44:16;;;;;;;7.60;4.50;;;14.90;75.00;;;;;;5151785;27;20029;-71
2022/05/22 02:46:42;;;;;;;10.10;4.45;;;14.90;75.00;;;;;;5146070;27;20768;-71
2022/05/22 02:49:09;;;;;;;12.13;4.70;;;14.80;75.20;;;;;;5147147;27;20023;-71
2022/05/22 02:51:36;;;;;;;6.68;4.22;;;14.80;75.50;;;;;;5148932;27;20023;-71
2022/05/22 02:54:03;;;;;;;5.97;4.10;;;14.80;76.20;;;;;;5150447;27;20027;-71
2022/05/22 02:56:30;;;;;;;5.57;3.50;;;14.80;75.50;;;;;;5145911;27;20027;-71
2022/05/22 02:58:56;;;;;;;7.20;4.57;;;14.80;75.50;;;;;;5149192;27;20011;-71
2022/05/22 03:01:23;;;;;;;10.55;4.30;;;14.80;75.60;;;;;;5149572;27;20072;-71
2022/05/22 03:03:51;;;;;;;8.00;4.63;;;14.80;75.70;;;;;;5148091;27;20019;-71
2022/05/22 03:09:03;;;;;;;9.02;4.75;;;14.80;75.80;;;;;;5146194;27;20061;-71
2022/05/22 03:11:30;;;;;;;6.75;4.13;;;14.80;75.80;;;;;;5145066;27;20030;-72
2022/05/22 03:13:56;;;;;;;8.15;4.43;;;14.80;75.90;;;;;;5144011;27;20026;-71
2022/05/22 03:16:23;;;;;;;6.55;4.40;;;14.80;75.80;;;;;;5149724;27;20027;-71
2022/05/22 03:18:49;;;;;;;8.63;3.63;;;14.80;75.70;;;;;;5146786;27;20058;-72
2022/05/22 03:21:16;;;;;;;7.47;3.25;;;14.80;75.60;;;;;;5150182;27;20018;-71
2022/05/22 03:23:42;;;;;;;5.10;3.05;;;14.70;75.50;;;;;;5144702;27;20048;-72
2022/05/22 03:26:09;;;;;;;4.28;2.85;;;14.80;75.60;;;;;;5148260;27;20105;-71
2022/05/22 03:28:37;;;;;;;4.40;2.47;;;14.70;75.50;;;;;;5144984;27;20126;-71
2022/05/22 03:31:03;;;;;;;4.47;1.73;;;14.70;75.70;;;;;;5147385;27;20145;-71
2022/05/22 03:33:30;;;;;;;3.13;1.73;;;14.70;75.90;;;;;;5144480;27;20068;-71
2022/05/22 03:35:57;;;;;;;4.28;1.95;;;14.70;76.00;;;;;;5151025;27;20134;-72
2022/05/22 03:38:23;;;;;;;4.85;2.25;;;14.70;76.00;;;;;;5143786;27;20023;-71
2022/05/22 03:40:50;;;;;;;7.03;1.88;;;14.70;76.10;;;;;;5148518;27;20054;-71
2022/05/22 03:43:17;;;;;;;4.15;1.40;;;14.70;76.20;;;;;;5145031;27;20018;-71
2022/05/22 03:45:45;;;;;;;2.78;1.45;;;14.70;76.50;;;;;;5148202;27;20023;-71
2022/05/22 03:48:12;;;;;;;2.88;1.17;;;14.70;76.80;;;;;;5141944;27;20103;-71
2022/05/22 03:50:38;;;;;;;13.73;2.35;;;14.70;76.80;;;;;;5139020;27;20019;-71
2022/05/22 03:53:05;;;;;;;7.78;2.50;;;14.70;77.00;;;;;;5149544;27;20027;-71
2022/05/22 03:55:32;;;;;;;7.55;4.78;;;14.70;77.00;;;;;;5148474;27;20035;-71
2022/05/22 03:57:58;;;;;;;18.73;12.73;;;14.70;76.90;;;;;;5139366;27;20030;-72
2022/05/22 04:00:27;;;;;;;11.40;7.72;;;14.70;76.70;;;;;;5144361;27;20027;-72
2022/05/22 04:02:53;;;;;;;7.35;4.80;;;14.70;76.50;;;;;;5148565;27;20086;-71
2022/05/22 04:05:20;;;;;;;6.78;3.38;;;14.70;76.40;;;;;;5139568;27;20026;-72
2022/05/22 04:07:48;;;;;;;6.47;2.47;;;14.70;76.30;;;;;;5150031;27;20148;-71
2022/05/22 04:10:16;;;;;;;5.03;2.15;;;14.70;76.10;;;;;;5145183;27;20018;-71
2022/05/22 04:12:44;;;;;;;5.07;2.08;;;14.60;76.10;;;;;;5139593;27;20025;-72
2022/05/22 04:15:15;;;;;;;5.00;2.17;;;14.60;76.30;;;;;;5147286;27;20039;-72
2022/05/22 04:17:41;;;;;;;1.73;1.55;;;14.60;76.40;;;;;;5139442;27;20501;-72
2022/05/22 04:20:08;;;;;;;4.57;1.98;;;14.60;76.40;;;;;;5148849;27;20572;-72
2022/05/22 04:25:11;;;;;;;4.28;1.58;;;14.60;76.50;;;;;;5144447;27;20389;-71
2022/05/22 04:25:22;;;;;;;2.10;1.35;;;14.60;76.60;;;;;;5146148;27;20867;-71
2022/05/22 04:27:49;;;;;;;3.78;1.95;;;14.60;76.80;;;;;;5141246;27;20132;-71
2022/05/22 04:30:20;;;;;;;3.55;2.28;;;14.60;76.70;;;;;;5148033;27;20023;-71
2022/05/22 04:32:51;;;;;;;2.38;1.80;;;14.60;76.70;;;;;;5146211;27;20022;-72
2022/05/22 04:35:19;;;;;;;9.00;2.15;;;14.60;76.70;;;;;;5144528;27;20554;-72
2022/05/22 04:37:46;;;;;;;1.80;1.45;;;14.50;76.50;;;;;;5145587;27;20146;-72
2022/05/22 04:40:13;;;;;;;18.52;2.95;;;14.50;76.40;;;;;;5147292;27;20050;-71
2022/05/22 04:42:40;;;;;;;10.50;2.60;;;14.60;76.70;;;;;;5144952;27;20027;-71
2022/05/22 04:45:09;;;;;;;6.70;2.55;;;14.50;76.70;;;;;;5146647;27;20023;-72
2022/05/22 04:47:38;;;;;;;8.88;3.53;;;14.50;76.70;;;;;;5144426;27;20158;-72
2022/05/22 04:50:05;;;;;;;12.27;2.33;;;14.50;76.70;;;;;;5144777;27;20439;-71
2022/05/22 04:52:33;;;;;;;15.35;4.53;;;14.50;76.70;;;;;;5144487;27;20075;-72
2022/05/22 04:54:59;;;;;;;23.35;13.88;;;14.50;77.00;;;;;;5145878;27;20035;-71
2022/05/22 04:57:26;;;;;;;17.58;11.25;;;14.50;77.30;;;;;;5144376;27;20590;-71
2022/05/22 04:59:52;;;;;;;8.48;6.82;;;14.50;77.00;;;;;;5143082;27;20026;-70
2022/05/22 05:02:19;;;;;;;20.55;12.90;;;14.50;77.00;;;;;;5144501;27;20022;-71
2022/05/22 05:04:45;;;;;;;22.85;17.00;;;14.50;76.90;;;;;;5146261;27;20014;-72
2022/05/22 05:07:12;;;;;;;27.13;7.40;;;14.50;76.70;;;;;;5146575;27;20026;-71
2022/05/22 05:09:38;;;;;;;17.83;5.18;;;14.50;76.40;;;;;;5144100;27;20076;-71
2022/05/22 05:12:05;;;;;;;9.30;3.65;;;14.50;76.70;;;;;;5147970;27;20495;-72
2022/05/22 05:14:33;;;;;;;9.38;3.33;;;14.40;76.70;;;;;;5122912;27;20038;-71
2022/05/22 05:16:59;;;;;;;3.80;2.45;;;14.40;76.50;;;;;;5145990;27;20567;-71
2022/05/22 05:19:26;;;;;;;5.40;2.63;;;14.40;76.40;;;;;;5143203;27;20046;-73
2022/05/22 05:21:56;;;;;;;3.25;1.95;;;14.40;76.30;;;;;;5144008;27;20022;-71
2022/05/22 05:24:23;;;;;;;4.80;2.72;;;14.40;76.20;;;;;;5149383;27;20476;-71
2022/05/22 05:26:50;;;;;;;4.68;1.98;;;14.40;76.20;;;;;;5147422;27;20130;-70
2022/05/22 05:29:17;;;;;;;6.47;1.98;;;14.40;76.20;;;;;;5144499;27;20023;-69
2022/05/22 05:31:44;;;;;;;4.50;1.85;;;14.40;76.00;;;;;;5149037;27;20054;-70
2022/05/22 05:34:10;;;;;;;4.40;1.85;;;14.40;76.00;;;;;;5149255;27;20122;-71
2022/05/22 05:36:37;;;;;;;7.20;2.10;;;14.40;76.00;;;;;;5143767;27;20023;-71
2022/05/22 05:39:04;;;;;;;3.05;1.88;;;14.30;76.00;;;;;;5150812;27;20027;-72
2022/05/22 05:41:30;;;;;;;4.15;2.60;;;14.40;76.00;;;;;;5151378;27;20106;-72
2022/05/22 05:43:57;;;;;;;6.78;2.97;;;14.30;75.80;;;;;;5148116;27;20379;-72
2022/05/22 05:46:23;;;;;;;11.80;3.35;;;14.30;75.80;;;;;;5147129;27;20022;-71
2022/05/22 05:48:51;;;;;;;4.28;2.90;;;14.30;76.00;;;;;;5149380;27;20019;-72
2022/05/22 05:51:17;;;;;;;5.45;3.35;;;14.40;75.20;;;;;;5148467;27;20075;-71
2022/05/22 05:53:44;;;;;;;24.90;11.50;;;14.30;75.80;;;;;;5148133;27;20030;-72
2022/05/22 05:56:11;;;;;;;40.15;27.00;;;14.30;76.90;;;;;;5147479;27;20553;-69
2022/05/22 05:58:37;;;;;;;21.45;15.07;;;14.30;76.90;;;;;;5148621;27;20026;-74
2022/05/22 06:01:04;;;;;;;8.88;7.60;;;14.30;77.60;;;;;;5149079;27;20852;-72
2022/05/22 06:03:31;;;;;;;8.52;4.93;;;14.30;77.10;;;;;;5149420;27;20725;-72
2022/05/22 06:05:58;;;;;;;6.00;3.92;;;14.30;77.20;;;;;;5124264;27;20042;-69
2022/05/22 06:08:25;;;;;;;5.05;2.53;;;14.30;77.30;;;;;;5148455;27;20488;-69
2022/05/22 06:10:53;;;;;;;3.15;2.47;;;14.30;77.20;;;;;;5146431;27;20415;-70
2022/05/22 06:13:19;;;;;;;3.90;2.45;;;14.30;77.20;;;;;;5149524;27;20046;-71
2022/05/22 06:15:46;;;;;;;3.35;2.03;;;14.30;77.20;;;;;;5145513;27;20034;-72
2022/05/22 06:18:12;;;;;;;6.82;3.72;;;14.40;77.40;;;;;;5146194;27;20042;-71
2022/05/22 06:20:39;;;;;;;8.40;3.97;;;14.40;77.40;;;;;;5147993;27;20025;-71
2022/05/22 06:23:05;;;;;;;12.98;4.45;;;14.40;77.40;;;;;;5145384;27;20041;-71
2022/05/22 06:25:33;;;;;;;12.40;6.63;;;14.40;77.50;;;;;;5147749;27;20094;-71
2022/05/22 06:28:00;;;;;;;10.35;7.38;;;14.40;77.50;;;;;;5146833;27;20400;-71
2022/05/22 06:30:26;;;;;;;14.15;9.57;;;14.40;77.50;;;;;;5146020;27;20142;-71
2022/05/22 06:32:53;;;;;;;12.70;10.60;;;14.40;77.70;;;;;;5146312;27;20025;-71
2022/05/22 06:35:24;;;;;;;15.73;12.68;;;14.40;77.70;;;;;;5147646;27;20072;-72
2022/05/22 06:37:50;;;;;;;17.65;14.30;;;14.40;77.80;;;;;;5146028;27;20030;-71
2022/05/22 06:40:18;;;;;;;18.35;13.60;;;14.40;77.90;;;;;;5127859;27;20085;-73
2022/05/22 06:42:45;;;;;;;17.40;13.50;;;14.40;78.20;;;;;;5146596;27;20422;-73
2022/05/22 06:45:25;;;;;;;18.15;10.07;;;14.40;78.40;;;;;;5146362;27;20018;-72
2022/05/22 06:47:52;;;;;;;14.02;7.60;;;14.40;78.80;;;;;;5148002;27;20473;-72
2022/05/22 06:50:23;;;;;;;8.55;6.55;;;14.50;78.90;;;;;;5145446;27;20098;-70
2022/05/22 06:52:52;;;;;;;97.63;78.45;;;14.50;79.00;;;;;;5145666;27;20023;-70
2022/05/22 06:55:19;;;;;;;47.50;35.70;;;14.50;79.30;;;;;;5143969;27;20031;-72
2022/05/22 06:57:45;;;;;;;29.60;23.67;;;14.50;79.50;;;;;;5146141;27;20106;-73
2022/05/22 07:00:15;;;;;;;23.27;18.02;;;14.50;79.70;;;;;;5144966;27;20026;-73
2022/05/22 07:02:42;;;;;;;12.45;11.15;;;14.50;80.00;;;;;;5143586;27;20461;-74
2022/05/22 07:05:11;;;;;;;15.35;10.57;;;14.50;80.10;;;;;;5145380;27;20098;-71
2022/05/22 07:07:37;;;;;;;11.93;9.93;;;14.60;80.20;;;;;;5145043;27;20023;-72
2022/05/22 07:10:04;;;;;;;11.27;9.05;;;14.60;80.30;;;;;;5146269;27;20007;-72
2022/05/22 07:12:31;;;;;;;9.25;8.23;;;14.70;80.50;;;;;;5126873;27;20376;-69
2022/05/22 07:14:58;;;;;;;12.10;8.55;;;14.70;80.60;;;;;;5145913;27;20027;-74
2022/05/22 07:17:25;;;;;;;13.77;8.27;;;14.70;80.70;;;;;;5144679;27;20100;-73
2022/05/22 07:19:53;;;;;;;15.13;7.88;;;14.80;80.80;;;;;;5143195;27;20603;-74
2022/05/22 07:22:19;;;;;;;9.95;7.05;;;14.80;80.80;;;;;;5144208;27;20139;-73
2022/05/22 07:24:48;;;;;;;11.13;8.82;;;14.80;80.90;;;;;;5145683;27;20046;-72
2022/05/22 07:27:16;;;;;;;12.77;9.23;;;14.90;81.10;;;;;;5143783;27;20019;-74
2022/05/22 07:29:43;;;;;;;15.35;8.88;;;14.90;81.20;;;;;;5144050;27;20022;-74
2022/05/22 07:32:13;;;;;;;13.63;6.85;;;14.90;81.30;;;;;;5144752;27;20496;-72
2022/05/22 07:34:43;;;;;;;14.63;7.35;;;15.00;81.40;;;;;;5145103;27;20605;-72
2022/05/22 07:37:12;;;;;;;9.75;6.80;;;15.00;81.50;;;;;;5123498;27;20022;-72
2022/05/22 07:39:39;;;;;;;18.55;6.85;;;15.00;81.60;;;;;;5145346;27;20031;-71
2022/05/22 07:42:06;;;;;;;11.77;7.70;;;15.00;81.70;;;;;;5143081;27;20496;-72
2022/05/22 07:44:32;;;;;;;18.48;9.57;;;15.10;81.90;;;;;;5144795;27;20478;-72
2022/05/22 07:46:59;;;;;;;10.65;8.43;;;15.20;82.00;;;;;;5143855;27;20131;-73
2022/05/22 07:52:50;;;;;;;13.07;7.78;;;15.20;82.20;;;;;;5142642;27;20074;-73
2022/05/22 07:55:56;;;;;;;15.77;8.20;;;15.30;82.40;;;;;;5145664;27;20038;-73
2022/05/22 07:58:40;;;;;;;17.23;7.60;;;15.30;82.70;;;;;;5144235;27;20576;-73
2022/05/22 08:01:07;;;;;;;10.90;6.85;;;15.30;82.90;;;;;;5128474;27;20031;-74
2022/05/22 08:03:33;;;;;;;11.85;6.38;;;15.40;83.00;;;;;;5132457;27;20482;-72
2022/05/22 08:06:39;;;;;;;15.65;6.78;;;15.40;83.10;;;;;;5144586;27;20018;-70
2022/05/22 08:09:45;;;;;;;166.45;139.57;;;15.50;83.10;;;;;;5146605;27;20014;-73
2022/05/22 08:12:12;;;;;;;94.28;79.60;;;15.50;83.60;;;;;;5116758;27;20027;-73
2022/05/22 08:14:39;;;;;;;63.15;56.38;;;15.50;83.90;;;;;;5146348;27;20071;-74
2022/05/22 08:17:06;;;;;;;48.08;42.88;;;15.60;84.00;;;;;;5145217;27;20044;-72
2022/05/22 08:19:32;;;;;;;51.45;36.97;;;15.60;84.10;;;;;;5145837;27;20046;-75
2022/05/22 08:21:59;;;;;;;37.65;30.50;;;15.70;84.10;;;;;;5145796;27;20030;-75
2022/05/22 08:24:25;;;;;;;30.08;23.77;;;15.70;84.40;;;;;;5146840;27;20037;-74
2022/05/22 08:26:52;;;;;;;30.45;20.80;;;15.80;84.40;;;;;;5145249;27;20019;-75
2022/05/22 08:29:18;;;;;;;23.67;16.05;;;15.80;84.60;;;;;;5148392;27;20026;-75
2022/05/22 08:31:45;;;;;;;88.40;72.97;;;15.90;84.30;;;;;;5148227;27;20048;-73
2022/05/22 08:34:13;;;;;;;32.50;24.63;;;15.90;84.20;;;;;;5147915;27;20086;-74
2022/05/22 08:36:39;;;;;;;25.83;16.08;;;16.00;84.20;;;;;;5148447;27;20034;-75
2022/05/22 08:39:06;;;;;;;25.80;15.10;;;16.00;84.30;;;;;;5146512;27;20117;-75
2022/05/22 08:41:44;;;;;;;14.10;10.77;;;16.10;84.40;;;;;;5127365;27;20026;-75
2022/05/22 08:44:18;;;;;;;15.23;8.30;;;16.10;84.40;;;;;;5147403;27;20122;-80
2022/05/22 08:47:03;;;;;;;12.40;4.55;;;16.20;84.90;;;;;;5138348;27;20015;-74
2022/05/22 08:49:49;;;;;;;10.38;5.28;;;16.40;84.70;;;;;;5144399;27;20026;-73
2022/05/22 08:52:35;;;;;;;4.88;3.53;;;16.40;84.30;;;;;;5146477;27;20572;-74
2022/05/22 08:55:12;;;;;;;7.47;4.07;;;16.50;83.90;;;;;;5143497;27;20492;-73
2022/05/22 09:00:51;;;;;;;11.88;4.40;;;16.60;83.40;;;;;;5148780;27;20829;-73
2022/05/22 09:03:26;;;;;;;7.70;3.78;;;16.60;83.10;;;;;;5148685;27;20084;-73
2022/05/22 09:05:59;;;;;;;10.38;3.03;;;16.60;82.80;;;;;;5153176;27;20513;-74
2022/05/22 09:08:49;;;;;;;7.65;3.58;;;16.70;82.70;;;;;;5152935;27;20075;-73
2022/05/22 09:11:32;;;;;;;4.50;2.80;;;16.70;82.70;;;;;;5147712;27;20148;-75
2022/05/22 09:14:28;;;;;;;8.20;2.72;;;16.80;82.80;;;;;;5145952;27;20113;-74
2022/05/22 09:17:07;;;;;;;7.07;2.45;;;16.80;82.60;;;;;;5145127;27;20477;-73
2022/05/22 09:19:37;;;;;;;4.03;1.30;;;17.00;82.30;;;;;;5153166;27;20556;-74
2022/05/22 09:22:22;;;;;;;3.58;1.23;;;17.00;81.70;;;;;;5143682;27;20027;-73
2022/05/22 09:25:08;;;;;;;3.00;1.45;;;17.00;81.40;;;;;;5147366;27;20015;-74
2022/05/22 09:27:49;;;;;;;3.17;1.40;;;17.10;81.80;;;;;;5149908;27;20065;-74
2022/05/22 09:30:42;;;;;;;5.80;1.42;;;17.10;80.60;;;;;;5147519;27;20023;-73
2022/05/22 09:33:26;;;;;;;6.03;1.10;;;17.10;80.20;;;;;;5150066;27;20023;-73
2022/05/22 09:35:54;;;;;;;5.20;1.23;;;17.20;80.20;;;;;;5145689;27;20485;-74
2022/05/22 09:38:27;;;;;;;2.45;1.00;;;17.30;80.20;;;;;;5150858;27;20067;-74
2022/05/22 09:41:06;;;;;;;3.00;1.00;;;17.30;79.90;;;;;;5149196;27;20018;-74
2022/05/22 09:44:14;;;;;;;1.25;0.90;;;17.40;79.80;;;;;;5148933;27;20131;-73
2022/05/22 09:47:01;;;;;;;2.72;0.80;;;17.50;79.60;;;;;;5128379;27;20118;-74
2022/05/22 09:49:40;;;;;;;3.42;0.77;;;17.50;79.30;;;;;;5148426;27;20054;-73
2022/05/22 09:52:40;;;;;;;7.55;0.95;;;17.60;79.40;;;;;;5141712;27;20046;-74
2022/05/22 09:55:34;;;;;;;1.00;0.80;;;17.70;79.60;;;;;;5144930;27;20087;-74
2022/05/22 09:58:37;;;;;;;2.80;1.10;;;17.80;79.30;;;;;;5144060;27;20019;-74
2022/05/22 10:01:33;;;;;;;4.53;1.10;;;17.90;79.20;;;;;;5147802;27;20030;-74
2022/05/22 10:04:06;;;;;;;5.13;1.52;;;18.00;79.00;;;;;;5146930;27;20021;-75
2022/05/22 10:06:46;;;;;;;4.47;1.55;;;18.00;78.30;;;;;;5146933;27;20065;-74
2022/05/22 10:09:28;;;;;;;11.38;2.33;;;18.10;78.10;;;;;;5147004;27;20010;-75
2022/05/22 10:12:13;;;;;;;4.70;1.30;;;18.20;77.70;;;;;;5147811;27;20034;-73
2022/05/22 10:15:13;;;;;;;9.55;2.50;;;18.20;77.40;;;;;;5122832;27;20037;-73
2022/05/22 10:18:01;;;;;;;3.53;1.40;;;18.20;77.00;;;;;;5146146;27;20481;-74
2022/05/22 10:21:05;;;;;;;3.83;1.33;;;18.30;77.00;;;;;;5149113;27;20435;-74
2022/05/22 10:23:56;;;;;;;6.00;0.95;;;18.30;76.40;;;;;;5136565;27;20049;-74
2022/05/22 10:26:48;;;;;;;5.28;1.40;;;18.40;76.50;;;;;;5149024;27;20519;-74
2022/05/22 10:29:40;;;;;;;4.90;1.10;;;18.40;76.20;;;;;;5148455;27;20014;-74
2022/05/22 10:32:17;;;;;;;2.97;0.98;;;18.40;76.00;;;;;;5127549;27;20771;-74
2022/05/22 10:35:14;;;;;;;1.75;0.60;;;18.50;75.90;;;;;;5147403;27;20046;-73
2022/05/22 10:38:09;;;;;;;1.73;0.73;;;18.50;75.90;;;;;;5128793;27;20022;-73
2022/05/22 10:43:28;;;;;;;1.83;0.80;;;18.60;75.50;;;;;;5149688;27;20128;-73
2022/05/22 10:45:54;;;;;;;4.78;0.60;;;18.60;75.20;;;;;;5130211;27;20031;-73
2022/05/22 10:48:27;;;;;;;4.40;1.05;;;18.60;75.10;;;;;;5143749;27;20106;-73
2022/05/22 10:51:03;;;;;;;6.13;0.70;;;18.60;75.10;;;;;;5152244;27;20043;-72
2022/05/22 10:53:39;;;;;;;2.40;1.63;;;18.70;75.20;;;;;;5124995;27;20033;-72
2022/05/22 10:56:14;;;;;;;;;;;18.70;75.30;;;;;;5151577;27;20040;-72
2022/05/22 10:58:54;;;;;;;9.15;1.58;;;18.80;75.30;;;;;;5141050;27;20307;-73
2022/05/22 11:01:23;;;;;;;1.58;1.10;;;18.80;75.10;;;;;;5142301;27;20113;-73
2022/05/22 11:04:10;;;;;;;1.77;1.13;;;18.80;74.80;;;;;;5142962;27;20055;-74
2022/05/22 11:06:55;;;;;;;4.82;1.20;;;18.80;74.70;;;;;;5149173;27;20461;-72
2022/05/22 11:09:30;;;;;;;3.63;1.00;;;18.80;74.70;;;;;;5148509;27;20439;-74
2022/05/22 11:12:15;;;;;;;4.22;1.00;;;18.80;74.70;;;;;;5143359;27;20404;-74
2022/05/22 11:14:42;;;;;;;1.77;0.70;;;18.90;74.60;;;;;;5145142;27;20060;-75
2022/05/22 11:17:22;;;;;;;1.52;1.10;;;18.90;74.40;;;;;;5141863;27;20027;-74
2022/05/22 11:19:53;;;;;;;5.50;1.65;;;18.90;74.20;;;;;;5148501;27;20171;-74
2022/05/22 11:22:44;;;;;;;5.07;3.00;;;18.90;73.90;;;;;;5145514;27;20113;-74
2022/05/22 11:25:29;;;;;;;5.07;2.63;;;18.90;73.20;;;;;;5147476;27;20015;-73
2022/05/22 11:28:21;;;;;;;5.18;2.45;;;18.90;73.10;;;;;;5148766;27;20153;-73
2022/05/22 11:30:48;;;;;;;3.95;1.40;;;18.90;72.90;;;;;;5140957;27;20042;-73
2022/05/22 11:33:33;;;;;;;4.60;1.60;;;18.90;73.00;;;;;;5142374;27;20369;-73
2022/05/22 11:36:18;;;;;;;2.53;1.05;;;18.80;73.20;;;;;;5148385;27;20074;-73
2022/05/22 11:39:25;;;;;;;2.03;1.00;;;18.80;73.40;;;;;;5142768;27;20023;-72
2022/05/22 11:41:55;;;;;;;2.45;0.77;;;18.80;73.60;;;;;;5146684;27;20027;-72
2022/05/22 11:44:33;;;;;;;1.65;1.15;;;18.80;73.60;;;;;;5125239;27;20010;-73
2022/05/22 11:47:26;;;;;;;0.80;0.70;;;18.80;73.60;;;;;;5150322;27;20047;-73
2022/05/22 11:50:53;;;;;;;3.63;0.85;;;18.80;73.70;;;;;;5135322;27;20078;-73
2022/05/22 11:53:32;;;;;;;3.10;1.40;;;18.90;73.80;;;;;;5140957;27;20018;-73
2022/05/22 11:56:35;;;;;;;2.42;0.90;;;18.90;73.70;;;;;;5141402;27;20047;-73
2022/05/22 11:59:24;;;;;;;1.65;1.20;;;19.00;73.60;;;;;;5142808;27;20377;-75
2022/05/22 12:02:16;;;;;;;1.13;0.63;;;19.00;73.20;;;;;;5147682;27;20192;-74
2022/05/22 12:04:54;;;;;;;3.15;2.30;;;19.10;73.20;;;;;;5146390;27;20083;-74
2022/05/22 12:07:59;;;;;;;3.95;1.63;;;19.20;73.00;;;;;;5144663;27;20144;-76
2022/05/22 12:10:38;;;;;;;1.40;1.30;;;19.20;72.80;;;;;;5127725;27;20381;-76
2022/05/22 12:13:47;;;;;;;5.55;3.85;;;19.30;72.70;;;;;;5147853;27;20041;-76
2022/05/22 12:16:22;;;;;;;2.78;2.45;;;19.40;72.50;;;;;;5135055;27;20542;-73
2022/05/22 12:19:23;;;;;;;6.28;1.40;;;19.40;72.30;;;;;;5128464;27;20038;-73
2022/05/22 12:21:59;;;;;;;2.72;1.15;;;19.40;72.10;;;;;;5142824;27;20045;-74
2022/05/22 12:24:44;;;;;;;1.38;0.82;;;19.50;72.10;;;;;;5146621;27;20134;-73
2022/05/22 12:27:21;;;;;;;1.50;0.55;;;19.50;72.10;;;;;;5125128;27;20023;-73
2022/05/22 12:30:13;;;;;;;1.92;0.47;;;19.60;72.00;;;;;;5145266;27;20027;-74
2022/05/22 12:32:46;;;;;;;1.23;0.25;;;19.60;72.00;;;;;;5134452;27;20039;-73
2022/05/22 12:35:15;;;;;;;1.52;0.63;;;19.60;71.90;;;;;;5152654;27;20026;-73
2022/05/22 12:38:06;;;;;;;3.60;0.52;;;19.70;71.90;;;;;;5149165;27;20026;-77
2022/05/22 12:40:47;;;;;;;2.55;0.80;;;19.70;71.80;;;;;;5148313;27;20023;-75
2022/05/22 12:43:18;;;;;;;1.92;0.70;;;19.70;71.90;;;;;;5150432;27;20045;-75
2022/05/22 12:45:54;;;;;;;5.88;1.08;;;19.70;71.70;;;;;;5149803;27;20432;-74
2022/05/22 12:48:37;;;;;;;1.65;0.50;;;19.70;71.40;;;;;;5150645;27;20027;-75
2022/05/22 12:51:17;;;;;;;1.50;0.82;;;19.80;71.40;;;;;;5150417;27;20018;-73
2022/05/22 12:53:54;;;;;;;5.25;0.63;;;19.70;71.30;;;;;;5132368;27;20034;-73
2022/05/22 12:56:31;;;;;;;4.13;0.40;;;19.70;71.20;;;;;;5150481;27;20058;-72
2022/05/22 12:59:00;;;;;;;1.35;0.60;;;19.60;71.30;;;;;;5152063;27;20010;-72
2022/05/22 13:01:33;;;;;;;2.33;0.95;;;19.60;71.60;;;;;;5150107;27;20018;-75
2022/05/22 13:04:06;;;;;;;2.35;0.90;;;19.60;71.60;;;;;;5151704;27;20023;-74
2022/05/22 13:06:56;;;;;;;2.58;0.45;;;19.60;71.80;;;;;;5151590;27;20030;-76
2022/05/22 13:09:32;;;;;;;0.50;0.30;;;19.60;71.90;;;;;;5133893;27;20050;-72
2022/05/22 13:12:18;;;;;;;5.13;0.50;;;19.60;72.00;;;;;;5150227;27;20019;-73
2022/05/22 13:15:14;;;;;;;0.85;0.55;;;19.60;72.00;;;;;;5148471;27;20034;-73
2022/05/22 13:17:41;;;;;;;;;;;19.60;71.90;;;;;;5149404;27;20037;-74
2022/05/22 13:20:22;;;;;;;1.00;0.60;;;19.60;72.00;;;;;;5151054;27;19950;-74
2022/05/22 13:23:01;;;;;;;1.50;0.43;;;19.60;71.90;;;;;;5146278;27;20029;-74
2022/05/22 13:25:44;;;;;;;3.03;1.25;;;19.60;71.80;;;;;;5146434;27;20031;-74
2022/05/22 13:28:31;;;;;;;5.25;1.00;;;19.60;71.90;;;;;;5149114;27;20030;-75
2022/05/22 13:31:06;;;;;;;3.85;1.00;;;19.70;71.90;;;;;;5131960;27;20046;-75